sensor_id;sensor_type;location;lat;lon;timestamp;temperature;humidity
48946;DHT22;34999;50.940;3.998;2023-07-09T00:01:57;22.30;13.90
48946;DHT22;34999;50.940;3.998;2023-07-09T00:04:26;22.20;18.40
48946;DHT22;34999;50.940;3.998;2023-07-09T00:07:00;22.20;22.30
48946;DHT22;34999;50.940;3.998;2023-07-09T00:09:30;22.20;27.10
48946;DHT22;34999;50.940;3.998;2023-07-09T00:11:58;22.10;28.20
48946;DHT22;34999;50.940;3.998;2023-07-09T00:14:26;22.10;31.80
48946;DHT22;34999;50.940;3.998;2023-07-09T00:16:55;22.00;32.90
48946;DHT22;34999;50.940;3.998;2023-07-09T00:19:23;22.00;28.50
48946;DHT22;34999;50.940;3.998;2023-07-09T00:21:51;22.00;29.90
48946;DHT22;34999;50.940;3.998;2023-07-09T00:24:22;22.00;33.50
48946;DHT22;34999;50.940;3.998;2023-07-09T00:26:51;21.90;29.30
48946;DHT22;34999;50.940;3.998;2023-07-09T00:29:19;21.90;31.20
48946;DHT22;34999;50.940;3.998;2023-07-09T00:31:47;21.80;38.20
48946;DHT22;34999;50.940;3.998;2023-07-09T00:34:16;21.80;42.90
48946;DHT22;34999;50.940;3.998;2023-07-09T00:36:49;21.80;47.40
48946;DHT22;34999;50.940;3.998;2023-07-09T00:39:18;21.70;50.00
48946;DHT22;34999;50.940;3.998;2023-07-09T00:41:49;21.70;54.40
48946;DHT22;34999;50.940;3.998;2023-07-09T00:44:27;21.70;52.80
48946;DHT22;34999;50.940;3.998;2023-07-09T00:47:22;21.70;45.90
48946;DHT22;34999;50.940;3.998;2023-07-09T00:50:02;21.80;32.30
48946;DHT22;34999;50.940;3.998;2023-07-09T00:52:34;21.90;25.60
48946;DHT22;34999;50.940;3.998;2023-07-09T00:55:07;22.00;17.00
48946;DHT22;34999;50.940;3.998;2023-07-09T00:57:39;22.10;11.80
48946;DHT22;34999;50.940;3.998;2023-07-09T01:00:11;22.10;6.10
48946;DHT22;34999;50.940;3.998;2023-07-09T01:02:45;22.10;1.90
48946;DHT22;34999;50.940;3.998;2023-07-09T01:05:16;22.10;1.00
48946;DHT22;34999;50.940;3.998;2023-07-09T01:07:47;22.20;1.00
48946;DHT22;34999;50.940;3.998;2023-07-09T01:10:17;22.20;1.00
48946;DHT22;34999;50.940;3.998;2023-07-09T01:12:48;22.20;1.00
48946;DHT22;34999;50.940;3.998;2023-07-09T01:15:18;22.20;1.00
48946;DHT22;34999;50.940;3.998;2023-07-09T01:17:46;22.20;1.00
48946;DHT22;34999;50.940;3.998;2023-07-09T01:20:17;22.20;1.00
48946;DHT22;34999;50.940;3.998;2023-07-09T01:22:50;22.20;1.00
48946;DHT22;34999;50.940;3.998;2023-07-09T01:25:22;22.20;1.00
48946;DHT22;34999;50.940;3.998;2023-07-09T01:27:51;22.10;1.00
48946;DHT22;34999;50.940;3.998;2023-07-09T01:30:22;22.10;1.00
48946;DHT22;34999;50.940;3.998;2023-07-09T01:32:51;22.10;1.00
48946;DHT22;34999;50.940;3.998;2023-07-09T01:35:24;22.10;1.00
48946;DHT22;34999;50.940;3.998;2023-07-09T01:37:55;22.10;1.00
48946;DHT22;34999;50.940;3.998;2023-07-09T01:40:37;22.00;1.00
48946;DHT22;34999;50.940;3.998;2023-07-09T01:43:06;22.00;1.00
48946;DHT22;34999;50.940;3.998;2023-07-09T01:45:36;21.90;1.00
48946;DHT22;34999;50.940;3.998;2023-07-09T01:48:05;21.80;1.00
48946;DHT22;34999;50.940;3.998;2023-07-09T01:50:44;21.70;10.20
48946;DHT22;34999;50.940;3.998;2023-07-09T01:53:15;21.60;19.10
48946;DHT22;34999;50.940;3.998;2023-07-09T01:55:44;21.60;28.60
48946;DHT22;34999;50.940;3.998;2023-07-09T01:58:12;21.60;28.90
48946;DHT22;34999;50.940;3.998;2023-07-09T02:00:43;21.60;30.30
48946;DHT22;34999;50.940;3.998;2023-07-09T02:03:11;21.60;26.20
48946;DHT22;34999;50.940;3.998;2023-07-09T02:05:41;21.60;25.50
48946;DHT22;34999;50.940;3.998;2023-07-09T02:08:09;21.70;20.10
48946;DHT22;34999;50.940;3.998;2023-07-09T02:10:38;21.70;19.00
48946;DHT22;34999;50.940;3.998;2023-07-09T02:13:07;21.60;22.30
48946;DHT22;34999;50.940;3.998;2023-07-09T02:15:35;21.50;27.40
48946;DHT22;34999;50.940;3.998;2023-07-09T02:18:03;21.50;24.10
48946;DHT22;34999;50.940;3.998;2023-07-09T02:20:32;21.50;20.90
48946;DHT22;34999;50.940;3.998;2023-07-09T02:23:00;21.50;22.10
48946;DHT22;34999;50.940;3.998;2023-07-09T02:25:28;21.50;23.50
48946;DHT22;34999;50.940;3.998;2023-07-09T02:27:58;21.40;26.40
48946;DHT22;34999;50.940;3.998;2023-07-09T02:30:26;21.40;30.20
48946;DHT22;34999;50.940;3.998;2023-07-09T02:32:55;21.30;33.00
48946;DHT22;34999;50.940;3.998;2023-07-09T02:35:24;21.30;31.50
48946;DHT22;34999;50.940;3.998;2023-07-09T02:37:52;21.20;33.60
48946;DHT22;34999;50.940;3.998;2023-07-09T02:40:20;21.20;39.50
48946;DHT22;34999;50.940;3.998;2023-07-09T02:42:48;21.20;39.40
48946;DHT22;34999;50.940;3.998;2023-07-09T02:45:18;21.10;43.20
48946;DHT22;34999;50.940;3.998;2023-07-09T02:47:47;21.10;45.20
48946;DHT22;34999;50.940;3.998;2023-07-09T02:50:16;21.10;47.40
48946;DHT22;34999;50.940;3.998;2023-07-09T02:52:44;21.10;47.70
48946;DHT22;34999;50.940;3.998;2023-07-09T02:55:12;21.10;54.40
48946;DHT22;34999;50.940;3.998;2023-07-09T02:57:41;21.00;53.20
48946;DHT22;34999;50.940;3.998;2023-07-09T03:00:10;21.00;55.70
48946;DHT22;34999;50.940;3.998;2023-07-09T03:02:40;20.90;54.30
48946;DHT22;34999;50.940;3.998;2023-07-09T03:05:08;20.90;56.50
48946;DHT22;34999;50.940;3.998;2023-07-09T03:07:37;20.80;57.00
48946;DHT22;34999;50.940;3.998;2023-07-09T03:10:06;20.80;67.60
48946;DHT22;34999;50.940;3.998;2023-07-09T03:12:35;20.70;64.80
48946;DHT22;34999;50.940;3.998;2023-07-09T03:15:04;20.70;74.10
48946;DHT22;34999;50.940;3.998;2023-07-09T03:17:32;20.70;75.30
48946;DHT22;34999;50.940;3.998;2023-07-09T03:20:02;20.70;76.40
48946;DHT22;34999;50.940;3.998;2023-07-09T03:22:31;20.70;77.70
48946;DHT22;34999;50.940;3.998;2023-07-09T03:24:59;20.60;78.60
48946;DHT22;34999;50.940;3.998;2023-07-09T03:27:27;20.60;82.90
48946;DHT22;34999;50.940;3.998;2023-07-09T03:29:56;20.60;85.30
48946;DHT22;34999;50.940;3.998;2023-07-09T03:32:24;20.50;90.20
48946;DHT22;34999;50.940;3.998;2023-07-09T03:34:52;20.50;91.00
48946;DHT22;34999;50.940;3.998;2023-07-09T03:37:22;20.50;92.30
48946;DHT22;34999;50.940;3.998;2023-07-09T03:39:51;20.50;92.90
48946;DHT22;34999;50.940;3.998;2023-07-09T03:42:19;20.50;94.40
48946;DHT22;34999;50.940;3.998;2023-07-09T03:44:47;20.40;93.80
48946;DHT22;34999;50.940;3.998;2023-07-09T03:47:17;20.40;94.00
48946;DHT22;34999;50.940;3.998;2023-07-09T03:49:46;20.40;93.70
48946;DHT22;34999;50.940;3.998;2023-07-09T03:52:14;20.30;94.40
48946;DHT22;34999;50.940;3.998;2023-07-09T03:54:44;20.30;96.00
48946;DHT22;34999;50.940;3.998;2023-07-09T03:57:12;20.30;97.00
48946;DHT22;34999;50.940;3.998;2023-07-09T03:59:41;20.20;97.70
48946;DHT22;34999;50.940;3.998;2023-07-09T04:02:11;20.20;99.90
48946;DHT22;34999;50.940;3.998;2023-07-09T04:04:39;20.20;99.90
48946;DHT22;34999;50.940;3.998;2023-07-09T04:07:08;20.20;99.90
48946;DHT22;34999;50.940;3.998;2023-07-09T04:09:36;20.10;99.90
48946;DHT22;34999;50.940;3.998;2023-07-09T04:12:07;20.10;99.90
48946;DHT22;34999;50.940;3.998;2023-07-09T04:14:35;20.10;99.90
48946;DHT22;34999;50.940;3.998;2023-07-09T04:17:04;20.10;99.90
48946;DHT22;34999;50.940;3.998;2023-07-09T04:19:32;20.10;99.90
48946;DHT22;34999;50.940;3.998;2023-07-09T04:22:00;20.10;99.90
48946;DHT22;34999;50.940;3.998;2023-07-09T04:24:30;20.10;99.90
48946;DHT22;34999;50.940;3.998;2023-07-09T04:27:00;20.20;99.90
48946;DHT22;34999;50.940;3.998;2023-07-09T04:29:31;20.20;99.90
48946;DHT22;34999;50.940;3.998;2023-07-09T04:32:01;20.20;99.90
48946;DHT22;34999;50.940;3.998;2023-07-09T04:34:29;20.30;99.90
48946;DHT22;34999;50.940;3.998;2023-07-09T04:36:57;20.30;99.30
48946;DHT22;34999;50.940;3.998;2023-07-09T04:39:26;20.30;94.70
48946;DHT22;34999;50.940;3.998;2023-07-09T04:41:54;20.30;95.20
48946;DHT22;34999;50.940;3.998;2023-07-09T04:44:22;20.30;89.30
48946;DHT22;34999;50.940;3.998;2023-07-09T04:46:53;20.30;74.50
48946;DHT22;34999;50.940;3.998;2023-07-09T04:49:21;20.30;67.70
48946;DHT22;34999;50.940;3.998;2023-07-09T04:51:49;20.30;65.50
48946;DHT22;34999;50.940;3.998;2023-07-09T04:54:18;20.30;59.50
48946;DHT22;34999;50.940;3.998;2023-07-09T04:56:46;20.40;61.90
48946;DHT22;34999;50.940;3.998;2023-07-09T04:59:15;20.50;57.10
48946;DHT22;34999;50.940;3.998;2023-07-09T05:01:43;20.60;63.10
48946;DHT22;34999;50.940;3.998;2023-07-09T05:04:13;20.70;57.70
48946;DHT22;34999;50.940;3.998;2023-07-09T05:06:42;20.70;47.80
48946;DHT22;34999;50.940;3.998;2023-07-09T05:09:10;20.80;40.20
48946;DHT22;34999;50.940;3.998;2023-07-09T05:11:38;20.80;36.50
48946;DHT22;34999;50.940;3.998;2023-07-09T05:14:06;21.00;20.60
48946;DHT22;34999;50.940;3.998;2023-07-09T05:16:38;21.10;21.50
48946;DHT22;34999;50.940;3.998;2023-07-09T05:19:07;21.10;9.30
48946;DHT22;34999;50.940;3.998;2023-07-09T05:21:37;21.10;10.20
48946;DHT22;34999;50.940;3.998;2023-07-09T05:24:06;21.20;12.30
48946;DHT22;34999;50.940;3.998;2023-07-09T05:26:34;21.40;1.00
48946;DHT22;34999;50.940;3.998;2023-07-09T05:29:03;21.40;1.00
48946;DHT22;34999;50.940;3.998;2023-07-09T05:31:32;21.60;1.00
48946;DHT22;34999;50.940;3.998;2023-07-09T05:34:03;21.70;1.00
48946;DHT22;34999;50.940;3.998;2023-07-09T05:36:31;21.80;1.00
48946;DHT22;34999;50.940;3.998;2023-07-09T05:39:01;21.90;1.00
48946;DHT22;34999;50.940;3.998;2023-07-09T05:41:29;22.00;1.00
48946;DHT22;34999;50.940;3.998;2023-07-09T05:43:57;22.10;1.00
48946;DHT22;34999;50.940;3.998;2023-07-09T05:46:28;22.20;1.00
48946;DHT22;34999;50.940;3.998;2023-07-09T05:48:56;22.30;1.00
48946;DHT22;34999;50.940;3.998;2023-07-09T05:51:24;22.40;1.00
48946;DHT22;34999;50.940;3.998;2023-07-09T05:53:53;22.50;1.00
48946;DHT22;34999;50.940;3.998;2023-07-09T05:56:23;22.60;1.00
48946;DHT22;34999;50.940;3.998;2023-07-09T05:58:52;22.60;1.00
48946;DHT22;34999;50.940;3.998;2023-07-09T06:01:20;22.70;1.00
48946;DHT22;34999;50.940;3.998;2023-07-09T06:03:49;22.80;1.00
48946;DHT22;34999;50.940;3.998;2023-07-09T06:06:17;22.80;1.00
48946;DHT22;34999;50.940;3.998;2023-07-09T06:08:46;22.90;1.00
48946;DHT22;34999;50.940;3.998;2023-07-09T06:11:14;23.00;1.00
48946;DHT22;34999;50.940;3.998;2023-07-09T06:13:46;23.00;1.00
48946;DHT22;34999;50.940;3.998;2023-07-09T06:16:16;23.10;1.00
48946;DHT22;34999;50.940;3.998;2023-07-09T06:18:44;23.20;1.00
48946;DHT22;34999;50.940;3.998;2023-07-09T06:21:12;23.40;1.00
48946;DHT22;34999;50.940;3.998;2023-07-09T06:23:40;23.60;1.00
48946;DHT22;34999;50.940;3.998;2023-07-09T06:26:09;23.70;1.00
48946;DHT22;34999;50.940;3.998;2023-07-09T06:28:37;23.80;1.00
48946;DHT22;34999;50.940;3.998;2023-07-09T06:31:07;23.80;1.00
48946;DHT22;34999;50.940;3.998;2023-07-09T06:33:35;23.90;1.00
48946;DHT22;34999;50.940;3.998;2023-07-09T06:36:04;23.90;1.00
48946;DHT22;34999;50.940;3.998;2023-07-09T06:38:33;24.00;1.00
48946;DHT22;34999;50.940;3.998;2023-07-09T06:41:01;24.20;1.00
48946;DHT22;34999;50.940;3.998;2023-07-09T06:43:30;24.30;1.00
48946;DHT22;34999;50.940;3.998;2023-07-09T06:46:00;24.40;1.00
48946;DHT22;34999;50.940;3.998;2023-07-09T06:48:30;24.40;1.00
48946;DHT22;34999;50.940;3.998;2023-07-09T06:51:00;24.60;1.00
48946;DHT22;34999;50.940;3.998;2023-07-09T06:53:29;24.70;1.00
48946;DHT22;34999;50.940;3.998;2023-07-09T06:55:58;24.70;1.00
48946;DHT22;34999;50.940;3.998;2023-07-09T06:58:28;24.90;1.00
48946;DHT22;34999;50.940;3.998;2023-07-09T07:01:01;25.10;1.00
48946;DHT22;34999;50.940;3.998;2023-07-09T07:03:33;25.20;99.90
48946;DHT22;34999;50.940;3.998;2023-07-09T07:06:01;25.30;99.90
48946;DHT22;34999;50.940;3.998;2023-07-09T07:08:30;25.50;99.90
48946;DHT22;34999;50.940;3.998;2023-07-09T07:11:00;25.60;99.90
48946;DHT22;34999;50.940;3.998;2023-07-09T07:13:30;25.80;99.90
48946;DHT22;34999;50.940;3.998;2023-07-09T07:15:59;26.00;99.90
48946;DHT22;34999;50.940;3.998;2023-07-09T07:18:28;26.30;99.90
48946;DHT22;34999;50.940;3.998;2023-07-09T07:20:57;26.30;99.90
48946;DHT22;34999;50.940;3.998;2023-07-09T07:23:26;26.30;99.90
48946;DHT22;34999;50.940;3.998;2023-07-09T07:25:55;26.60;99.90
48946;DHT22;34999;50.940;3.998;2023-07-09T07:28:23;26.60;1.00
48946;DHT22;34999;50.940;3.998;2023-07-09T07:30:58;26.40;99.90
48946;DHT22;34999;50.940;3.998;2023-07-09T07:33:27;26.40;54.20
48946;DHT22;34999;50.940;3.998;2023-07-09T07:35:56;26.30;99.90
48946;DHT22;34999;50.940;3.998;2023-07-09T07:38:28;26.20;99.90
48946;DHT22;34999;50.940;3.998;2023-07-09T07:40:56;26.40;99.90
48946;DHT22;34999;50.940;3.998;2023-07-09T07:43:24;26.90;41.80
48946;DHT22;34999;50.940;3.998;2023-07-09T07:45:53;27.40;1.00
48946;DHT22;34999;50.940;3.998;2023-07-09T07:48:22;27.90;1.00
48946;DHT22;34999;50.940;3.998;2023-07-09T07:50:50;28.50;99.90
48946;DHT22;34999;50.940;3.998;2023-07-09T07:53:20;28.80;1.00
48946;DHT22;34999;50.940;3.998;2023-07-09T07:55:48;29.10;1.00
48946;DHT22;34999;50.940;3.998;2023-07-09T07:58:16;29.30;1.00
48946;DHT22;34999;50.940;3.998;2023-07-09T08:00:45;29.40;99.90
48946;DHT22;34999;50.940;3.998;2023-07-09T08:03:13;29.50;99.90
48946;DHT22;34999;50.940;3.998;2023-07-09T08:05:42;29.90;48.90
48946;DHT22;34999;50.940;3.998;2023-07-09T08:08:10;30.40;1.00
48946;DHT22;34999;50.940;3.998;2023-07-09T08:10:40;30.80;99.90
48946;DHT22;34999;50.940;3.998;2023-07-09T08:13:08;31.10;99.90
48946;DHT22;34999;50.940;3.998;2023-07-09T08:15:36;31.50;1.00
48946;DHT22;34999;50.940;3.998;2023-07-09T08:18:04;31.60;1.00
48946;DHT22;34999;50.940;3.998;2023-07-09T08:20:33;31.70;99.90
48946;DHT22;34999;50.940;3.998;2023-07-09T08:23:02;31.50;1.00
48946;DHT22;34999;50.940;3.998;2023-07-09T08:25:30;31.40;1.00
48946;DHT22;34999;50.940;3.998;2023-07-09T08:28:00;31.50;1.00
48946;DHT22;34999;50.940;3.998;2023-07-09T08:30:28;31.60;1.00
48946;DHT22;34999;50.940;3.998;2023-07-09T08:32:57;32.00;1.00
48946;DHT22;34999;50.940;3.998;2023-07-09T08:35:25;32.20;99.90
48946;DHT22;34999;50.940;3.998;2023-07-09T08:38:02;32.30;99.90
48946;DHT22;34999;50.940;3.998;2023-07-09T08:40:31;32.30;99.90
48946;DHT22;34999;50.940;3.998;2023-07-09T08:43:16;32.20;11.70
48946;DHT22;34999;50.940;3.998;2023-07-09T08:45:54;32.00;52.50
48946;DHT22;34999;50.940;3.998;2023-07-09T08:48:30;31.90;99.90
48946;DHT22;34999;50.940;3.998;2023-07-09T08:51:04;31.80;1.00
48946;DHT22;34999;50.940;3.998;2023-07-09T08:53:38;31.90;1.00
48946;DHT22;34999;50.940;3.998;2023-07-09T08:56:10;32.00;99.90
48946;DHT22;34999;50.940;3.998;2023-07-09T08:58:41;31.90;99.90
48946;DHT22;34999;50.940;3.998;2023-07-09T09:01:18;31.80;1.00
48946;DHT22;34999;50.940;3.998;2023-07-09T09:03:48;31.80;99.90
48946;DHT22;34999;50.940;3.998;2023-07-09T09:06:20;32.00;99.90
48946;DHT22;34999;50.940;3.998;2023-07-09T09:09:01;32.30;99.90
48946;DHT22;34999;50.940;3.998;2023-07-09T09:11:39;33.00;99.90
48946;DHT22;34999;50.940;3.998;2023-07-09T09:14:22;33.30;1.00
48946;DHT22;34999;50.940;3.998;2023-07-09T09:16:52;33.80;1.00
48946;DHT22;34999;50.940;3.998;2023-07-09T09:19:25;34.10;1.00
48946;DHT22;34999;50.940;3.998;2023-07-09T09:21:58;34.70;99.90
48946;DHT22;34999;50.940;3.998;2023-07-09T09:24:36;35.10;1.00
48946;DHT22;34999;50.940;3.998;2023-07-09T09:27:05;35.20;1.00
48946;DHT22;34999;50.940;3.998;2023-07-09T09:29:36;35.00;99.90
48946;DHT22;34999;50.940;3.998;2023-07-09T09:32:18;34.80;99.90
48946;DHT22;34999;50.940;3.998;2023-07-09T09:34:48;34.60;1.00
48946;DHT22;34999;50.940;3.998;2023-07-09T09:37:26;34.40;1.00
48946;DHT22;34999;50.940;3.998;2023-07-09T09:39:55;33.90;1.00
48946;DHT22;34999;50.940;3.998;2023-07-09T09:42:43;33.80;1.00
48946;DHT22;34999;50.940;3.998;2023-07-09T09:45:17;33.30;1.00
48946;DHT22;34999;50.940;3.998;2023-07-09T09:47:46;32.20;1.00
48946;DHT22;34999;50.940;3.998;2023-07-09T09:50:15;31.70;99.90
48946;DHT22;34999;50.940;3.998;2023-07-09T09:52:45;31.40;1.00
48946;DHT22;34999;50.940;3.998;2023-07-09T09:55:18;31.10;1.00
48946;DHT22;34999;50.940;3.998;2023-07-09T09:57:52;31.00;99.90
48946;DHT22;34999;50.940;3.998;2023-07-09T10:00:24;30.90;1.00
48946;DHT22;34999;50.940;3.998;2023-07-09T10:02:57;30.80;1.00
48946;DHT22;34999;50.940;3.998;2023-07-09T10:05:32;30.60;1.00
48946;DHT22;34999;50.940;3.998;2023-07-09T10:08:06;30.70;99.90
48946;DHT22;34999;50.940;3.998;2023-07-09T10:10:37;30.90;1.00
48946;DHT22;34999;50.940;3.998;2023-07-09T10:13:12;31.20;1.00
48946;DHT22;34999;50.940;3.998;2023-07-09T10:15:48;31.30;99.90
48946;DHT22;34999;50.940;3.998;2023-07-09T10:18:29;31.20;1.00
48946;DHT22;34999;50.940;3.998;2023-07-09T10:21:05;31.00;99.90
48946;DHT22;34999;50.940;3.998;2023-07-09T10:23:39;30.60;99.90
48946;DHT22;34999;50.940;3.998;2023-07-09T10:26:13;30.20;1.00
48946;DHT22;34999;50.940;3.998;2023-07-09T10:29:14;29.90;1.00
48946;DHT22;34999;50.940;3.998;2023-07-09T10:31:54;29.60;99.90
48946;DHT22;34999;50.940;3.998;2023-07-09T10:34:30;29.40;1.00
48946;DHT22;34999;50.940;3.998;2023-07-09T10:37:15;29.10;1.00
48946;DHT22;34999;50.940;3.998;2023-07-09T10:39:51;28.70;1.00
48946;DHT22;34999;50.940;3.998;2023-07-09T10:42:25;28.50;99.90
48946;DHT22;34999;50.940;3.998;2023-07-09T10:44:58;28.50;99.90
48946;DHT22;34999;50.940;3.998;2023-07-09T10:47:34;28.30;99.90
48946;DHT22;34999;50.940;3.998;2023-07-09T10:50:06;28.20;1.00
48946;DHT22;34999;50.940;3.998;2023-07-09T10:52:40;28.20;1.00
48946;DHT22;34999;50.940;3.998;2023-07-09T10:55:16;28.30;1.00
48946;DHT22;34999;50.940;3.998;2023-07-09T10:57:48;28.40;22.80
48946;DHT22;34999;50.940;3.998;2023-07-09T11:00:21;28.60;1.00
48946;DHT22;34999;50.940;3.998;2023-07-09T11:02:58;29.00;99.90
48946;DHT22;34999;50.940;3.998;2023-07-09T11:05:27;29.60;1.00
48946;DHT22;34999;50.940;3.998;2023-07-09T11:08:00;30.00;99.90
48946;DHT22;34999;50.940;3.998;2023-07-09T11:10:32;30.40;99.90
48946;DHT22;34999;50.940;3.998;2023-07-09T11:13:04;30.80;1.00
48946;DHT22;34999;50.940;3.998;2023-07-09T11:15:36;30.70;1.00
48946;DHT22;34999;50.940;3.998;2023-07-09T11:18:10;30.40;1.00
48946;DHT22;34999;50.940;3.998;2023-07-09T11:20:43;30.10;7.80
48946;DHT22;34999;50.940;3.998;2023-07-09T11:23:22;30.00;1.00
48946;DHT22;34999;50.940;3.998;2023-07-09T11:26:02;29.50;99.90
48946;DHT22;34999;50.940;3.998;2023-07-09T11:28:34;29.00;1.00
48946;DHT22;34999;50.940;3.998;2023-07-09T11:31:06;28.80;1.00
48946;DHT22;34999;50.940;3.998;2023-07-09T11:33:46;28.60;99.90
48946;DHT22;34999;50.940;3.998;2023-07-09T11:36:24;28.50;99.90
48946;DHT22;34999;50.940;3.998;2023-07-09T11:38:54;28.40;1.00
48946;DHT22;34999;50.940;3.998;2023-07-09T11:41:34;28.30;1.00
48946;DHT22;34999;50.940;3.998;2023-07-09T11:44:13;28.00;1.00
48946;DHT22;34999;50.940;3.998;2023-07-09T11:46:52;27.70;1.00
48946;DHT22;34999;50.940;3.998;2023-07-09T11:49:36;27.50;1.00
48946;DHT22;34999;50.940;3.998;2023-07-09T11:52:07;27.40;1.00
48946;DHT22;34999;50.940;3.998;2023-07-09T11:54:38;27.20;1.00
48946;DHT22;34999;50.940;3.998;2023-07-09T11:57:12;27.00;99.90
48946;DHT22;34999;50.940;3.998;2023-07-09T11:59:42;26.80;99.90
48946;DHT22;34999;50.940;3.998;2023-07-09T12:02:16;26.60;1.00
48946;DHT22;34999;50.940;3.998;2023-07-09T12:04:48;26.50;1.00
48946;DHT22;34999;50.940;3.998;2023-07-09T12:07:16;26.40;1.00
48946;DHT22;34999;50.940;3.998;2023-07-09T12:09:48;26.40;1.00
48946;DHT22;34999;50.940;3.998;2023-07-09T12:12:19;26.30;1.00
48946;DHT22;34999;50.940;3.998;2023-07-09T12:14:48;26.20;1.00
48946;DHT22;34999;50.940;3.998;2023-07-09T12:17:17;26.20;1.00
48946;DHT22;34999;50.940;3.998;2023-07-09T12:19:47;26.20;1.00
48946;DHT22;34999;50.940;3.998;2023-07-09T12:22:19;26.10;1.00
48946;DHT22;34999;50.940;3.998;2023-07-09T12:24:49;26.10;1.00
48946;DHT22;34999;50.940;3.998;2023-07-09T12:27:21;26.00;1.00
48946;DHT22;34999;50.940;3.998;2023-07-09T12:29:56;25.90;1.00
48946;DHT22;34999;50.940;3.998;2023-07-09T12:32:25;25.70;1.00
48946;DHT22;34999;50.940;3.998;2023-07-09T12:34:56;25.50;1.00
48946;DHT22;34999;50.940;3.998;2023-07-09T12:37:27;25.40;1.00
48946;DHT22;34999;50.940;3.998;2023-07-09T12:39:59;25.20;1.00
48946;DHT22;34999;50.940;3.998;2023-07-09T12:42:31;25.00;22.80
48946;DHT22;34999;50.940;3.998;2023-07-09T12:45:02;24.80;23.80
48946;DHT22;34999;50.940;3.998;2023-07-09T12:47:30;24.70;59.90
48946;DHT22;34999;50.940;3.998;2023-07-09T12:50:20;24.60;43.40
48946;DHT22;34999;50.940;3.998;2023-07-09T12:52:49;24.70;57.60
48946;DHT22;34999;50.940;3.998;2023-07-09T12:55:21;24.60;25.30
48946;DHT22;34999;50.940;3.998;2023-07-09T12:57:50;24.70;36.10
48946;DHT22;34999;50.940;3.998;2023-07-09T13:00:20;24.80;82.80
48946;DHT22;34999;50.940;3.998;2023-07-09T13:02:54;25.00;99.90
48946;DHT22;34999;50.940;3.998;2023-07-09T13:05:25;25.00;99.90
48946;DHT22;34999;50.940;3.998;2023-07-09T13:07:58;25.00;17.50
48946;DHT22;34999;50.940;3.998;2023-07-09T13:10:28;25.10;99.90
48946;DHT22;34999;50.940;3.998;2023-07-09T13:13:02;25.20;99.90
48946;DHT22;34999;50.940;3.998;2023-07-09T13:15:39;25.20;99.90
48946;DHT22;34999;50.940;3.998;2023-07-09T13:18:11;25.20;99.90
48946;DHT22;34999;50.940;3.998;2023-07-09T13:20:43;25.00;99.90
48946;DHT22;34999;50.940;3.998;2023-07-09T13:23:14;25.00;99.90
48946;DHT22;34999;50.940;3.998;2023-07-09T13:25:43;24.90;99.90
48946;DHT22;34999;50.940;3.998;2023-07-09T13:28:16;24.80;99.90
48946;DHT22;34999;50.940;3.998;2023-07-09T13:30:45;24.80;99.90
48946;DHT22;34999;50.940;3.998;2023-07-09T13:33:13;24.70;99.90
48946;DHT22;34999;50.940;3.998;2023-07-09T13:35:46;24.50;99.90
48946;DHT22;34999;50.940;3.998;2023-07-09T13:38:15;24.40;99.90
48946;DHT22;34999;50.940;3.998;2023-07-09T13:40:47;24.40;99.90
48946;DHT22;34999;50.940;3.998;2023-07-09T13:43:28;24.40;99.90
48946;DHT22;34999;50.940;3.998;2023-07-09T13:45:56;24.30;99.90
48946;DHT22;34999;50.940;3.998;2023-07-09T13:48:25;24.20;99.90
48946;DHT22;34999;50.940;3.998;2023-07-09T13:50:57;24.20;99.90
48946;DHT22;34999;50.940;3.998;2023-07-09T13:53:29;24.20;99.90
48946;DHT22;34999;50.940;3.998;2023-07-09T13:55:58;24.20;99.90
48946;DHT22;34999;50.940;3.998;2023-07-09T13:58:27;24.30;99.90
48946;DHT22;34999;50.940;3.998;2023-07-09T14:00:59;24.50;99.90
48946;DHT22;34999;50.940;3.998;2023-07-09T14:03:33;24.80;99.90
48946;DHT22;34999;50.940;3.998;2023-07-09T14:06:04;25.00;99.90
48946;DHT22;34999;50.940;3.998;2023-07-09T14:08:32;25.20;99.90
48946;DHT22;34999;50.940;3.998;2023-07-09T14:11:00;25.40;99.90
48946;DHT22;34999;50.940;3.998;2023-07-09T14:13:30;25.50;99.90
48946;DHT22;34999;50.940;3.998;2023-07-09T14:16:00;25.80;99.90
48946;DHT22;34999;50.940;3.998;2023-07-09T14:18:29;26.00;99.90
48946;DHT22;34999;50.940;3.998;2023-07-09T14:20:58;26.20;99.90
48946;DHT22;34999;50.940;3.998;2023-07-09T14:23:28;26.20;99.90
48946;DHT22;34999;50.940;3.998;2023-07-09T14:25:57;26.20;99.90
48946;DHT22;34999;50.940;3.998;2023-07-09T14:28:25;26.20;99.90
48946;DHT22;34999;50.940;3.998;2023-07-09T14:30:53;26.20;99.90
48946;DHT22;34999;50.940;3.998;2023-07-09T14:33:22;26.40;99.90
48946;DHT22;34999;50.940;3.998;2023-07-09T14:35:50;26.70;99.90
48946;DHT22;34999;50.940;3.998;2023-07-09T14:38:20;27.10;99.90
48946;DHT22;34999;50.940;3.998;2023-07-09T14:40:52;27.10;99.90
48946;DHT22;34999;50.940;3.998;2023-07-09T14:43:21;26.90;99.90
48946;DHT22;34999;50.940;3.998;2023-07-09T14:45:50;26.80;99.90
48946;DHT22;34999;50.940;3.998;2023-07-09T14:48:20;26.90;99.90
48946;DHT22;34999;50.940;3.998;2023-07-09T14:50:48;26.90;99.90
48946;DHT22;34999;50.940;3.998;2023-07-09T14:53:21;26.90;99.90
48946;DHT22;34999;50.940;3.998;2023-07-09T14:55:51;27.30;99.90
48946;DHT22;34999;50.940;3.998;2023-07-09T14:58:21;27.40;99.90
48946;DHT22;34999;50.940;3.998;2023-07-09T15:00:50;27.10;99.90
48946;DHT22;34999;50.940;3.998;2023-07-09T15:03:20;26.70;99.90
48946;DHT22;34999;50.940;3.998;2023-07-09T15:05:50;26.30;99.90
48946;DHT22;34999;50.940;3.998;2023-07-09T15:08:20;26.00;99.90
48946;DHT22;34999;50.940;3.998;2023-07-09T15:10:53;25.90;99.90
48946;DHT22;34999;50.940;3.998;2023-07-09T15:13:27;26.30;99.90
48946;DHT22;34999;50.940;3.998;2023-07-09T15:15:57;26.80;99.90
48946;DHT22;34999;50.940;3.998;2023-07-09T15:18:26;26.80;99.90
48946;DHT22;34999;50.940;3.998;2023-07-09T15:20:58;26.60;99.90
48946;DHT22;34999;50.940;3.998;2023-07-09T15:23:29;26.20;99.90
48946;DHT22;34999;50.940;3.998;2023-07-09T15:26:00;25.70;99.90
48946;DHT22;34999;50.940;3.998;2023-07-09T15:28:29;25.50;99.90
48946;DHT22;34999;50.940;3.998;2023-07-09T15:30:57;25.80;99.90
48946;DHT22;34999;50.940;3.998;2023-07-09T15:33:25;26.10;99.90
48946;DHT22;34999;50.940;3.998;2023-07-09T15:35:54;26.40;99.90
48946;DHT22;34999;50.940;3.998;2023-07-09T15:38:27;26.60;99.90
48946;DHT22;34999;50.940;3.998;2023-07-09T15:40:59;26.70;99.90
48946;DHT22;34999;50.940;3.998;2023-07-09T15:43:29;26.80;99.90
48946;DHT22;34999;50.940;3.998;2023-07-09T15:45:57;27.10;99.90
48946;DHT22;34999;50.940;3.998;2023-07-09T15:48:31;27.10;99.90
48946;DHT22;34999;50.940;3.998;2023-07-09T15:51:00;27.20;99.90
48946;DHT22;34999;50.940;3.998;2023-07-09T15:53:30;27.10;99.90
48946;DHT22;34999;50.940;3.998;2023-07-09T15:56:02;26.80;99.90
48946;DHT22;34999;50.940;3.998;2023-07-09T15:58:37;26.70;99.90
48946;DHT22;34999;50.940;3.998;2023-07-09T16:01:09;26.50;99.90